Time;durP1;ratioP1;P1;durP2;ratioP2;P2;SDS_P1;SDS_P2;PMS_P1;PMS_P2;Temp;Humidity;BMP_temperature;BMP_pressure;BME280_temperature;BME280_humidity;BME280_pressure;Samples;Min_cycle;Max_cycle;Signal;HPM_P1;HPM_P2
2022/06/22 00:00:59;;;;;;;9.98;6.45;;;12.60;99.90;;;;;;4790213;30;20073;-68
2022/06/22 00:03:26;;;;;;;10.35;6.55;;;12.60;99.90;;;;;;4772872;30;20047;-70
2022/06/22 00:05:52;;;;;;;10.40;6.30;;;12.50;99.90;;;;;;4771602;30;20048;-68
2022/06/22 00:08:34;;;;;;;10.23;6.22;;;12.50;99.90;;;;;;4789427;29;20090;-68
2022/06/22 00:11:11;;;;;;;8.88;6.68;;;12.50;99.90;;;;;;4786838;30;20150;-69
2022/06/22 00:13:37;;;;;;;9.90;6.78;;;12.40;99.90;;;;;;4773059;30;20090;-69
2022/06/22 00:16:05;;;;;;;8.10;6.00;;;12.40;99.90;;;;;;4788064;29;20058;-69
2022/06/22 00:18:37;;;;;;;8.98;6.50;;;12.40;99.90;;;;;;4789200;29;20134;-68
2022/06/22 00:21:18;;;;;;;7.18;5.85;;;12.40;99.90;;;;;;4787441;29;20067;-68
2022/06/22 00:23:47;;;;;;;9.23;6.50;;;12.30;99.90;;;;;;4772219;30;20059;-69
2022/06/22 00:26:20;;;;;;;8.27;6.90;;;12.20;99.90;;;;;;4772543;30;20118;-69
2022/06/22 00:29:04;;;;;;;8.35;7.03;;;12.20;99.90;;;;;;4786985;30;20489;-68
2022/06/22 00:31:42;;;;;;;10.25;6.22;;;12.20;99.90;;;;;;4787512;29;20505;-70
2022/06/22 00:34:11;;;;;;;8.15;6.75;;;12.10;99.90;;;;;;4787539;29;20047;-68
2022/06/22 00:36:47;;;;;;;7.55;6.13;;;12.10;99.90;;;;;;4788144;30;20097;-69
2022/06/22 00:39:13;;;;;;;9.38;7.32;;;12.00;99.90;;;;;;4771827;30;20059;-69
2022/06/22 00:41:39;;;;;;;10.88;7.65;;;12.00;99.90;;;;;;4771981;30;20123;-69
2022/06/22 00:44:10;;;;;;;11.85;6.80;;;12.00;99.90;;;;;;4771393;30;20047;-69
2022/06/22 00:46:41;;;;;;;8.50;7.47;;;11.90;99.90;;;;;;4788992;29;20086;-69
2022/06/22 00:49:09;;;;;;;9.82;7.65;;;11.80;99.90;;;;;;4789245;29;20128;-68
2022/06/22 00:51:40;;;;;;;7.65;6.20;;;11.80;99.90;;;;;;4789310;29;20047;-69
2022/06/22 00:54:09;;;;;;;9.38;6.78;;;11.70;99.90;;;;;;4786217;29;20405;-68
2022/06/22 00:56:44;;;;;;;8.82;6.60;;;11.70;99.90;;;;;;4772231;30;20525;-69
2022/06/22 00:59:16;;;;;;;9.95;7.10;;;11.60;99.90;;;;;;4787313;29;20051;-68
2022/06/22 01:02:00;;;;;;;8.05;7.25;;;11.50;99.90;;;;;;4771593;30;20108;-68
2022/06/22 01:04:49;;;;;;;9.73;7.22;;;11.50;99.90;;;;;;4771912;30;20059;-67
2022/06/22 01:07:43;;;;;;;9.38;7.45;;;11.40;99.90;;;;;;4786282;29;20081;-68
2022/06/22 01:10:15;;;;;;;8.27;6.95;;;11.40;99.90;;;;;;4787987;29;20127;-68
2022/06/22 01:12:45;;;;;;;;;;;11.30;99.90;;;;;;4788718;29;20481;-68
2022/06/22 01:15:20;;;;;;;10.13;7.47;;;11.20;99.90;;;;;;4786629;29;19921;-69
2022/06/22 01:18:11;;;;;;;9.05;7.20;;;11.10;99.90;;;;;;4786828;29;20564;-67
2022/06/22 01:21:09;;;;;;;9.85;7.05;;;11.10;99.90;;;;;;4786668;29;20063;-69
2022/06/22 01:24:07;;;;;;;8.50;7.28;;;11.00;99.90;;;;;;4769575;30;20059;-69
2022/06/22 01:26:51;;;;;;;7.65;6.72;;;10.90;99.90;;;;;;4758748;30;20059;-68
2022/06/22 01:29:20;;;;;;;8.95;6.90;;;10.90;99.90;;;;;;4770823;30;20441;-67
2022/06/22 01:32:00;;;;;;;8.38;7.55;;;10.80;99.90;;;;;;4786457;29;20097;-68
2022/06/22 01:34:33;;;;;;;7.57;6.88;;;10.70;99.90;;;;;;4785998;30;20066;-67
2022/06/22 01:37:05;;;;;;;8.65;7.75;;;10.70;99.90;;;;;;4787904;29;20091;-68
2022/06/22 01:39:31;;;;;;;7.85;7.07;;;10.70;99.90;;;;;;4771187;30;20043;-68
2022/06/22 01:42:05;;;;;;;9.05;6.85;;;10.70;99.90;;;;;;4788078;30;20051;-68
2022/06/22 01:44:46;;;;;;;7.90;6.90;;;10.70;99.90;;;;;;4786889;30;20059;-68
2022/06/22 01:47:35;;;;;;;9.10;7.47;;;10.60;99.90;;;;;;4783232;29;20072;-67
2022/06/22 01:50:26;;;;;;;8.85;7.75;;;10.60;99.90;;;;;;4787081;30;20508;-68
2022/06/22 01:53:05;;;;;;;9.95;7.68;;;10.60;99.90;;;;;;4771341;30;20120;-68
2022/06/22 01:56:12;;;;;;;7.93;7.13;;;10.50;99.90;;;;;;4787083;30;20098;-68
2022/06/22 01:59:20;;;;;;;9.10;7.63;;;10.50;99.90;;;;;;4771044;30;20066;-69
2022/06/22 02:01:55;;;;;;;9.95;7.22;;;10.40;99.90;;;;;;4785512;30;20067;-67
2022/06/22 02:04:34;;;;;;;7.72;6.93;;;10.40;99.90;;;;;;4760859;30;20134;-68
2022/06/22 02:10:15;;;;;;;9.77;7.93;;;10.30;99.90;;;;;;4788002;29;20051;-68
2022/06/22 02:12:49;;;;;;;9.93;7.38;;;10.40;99.90;;;;;;4771191;30;20221;-67
2022/06/22 02:15:39;;;;;;;8.23;7.35;;;10.30;99.90;;;;;;4770612;29;20055;-68
2022/06/22 02:18:15;;;;;;;9.60;7.47;;;10.40;99.90;;;;;;4786862;29;20062;-69
2022/06/22 02:20:41;;;;;;;7.60;6.82;;;10.40;99.90;;;;;;4771295;30;20130;-68
2022/06/22 02:23:30;;;;;;;9.15;7.18;;;10.40;99.90;;;;;;4769622;29;20047;-67
2022/06/22 02:26:23;;;;;;;11.25;7.30;;;10.40;99.90;;;;;;4786104;29;20097;-69
2022/06/22 02:28:49;;;;;;;9.07;6.38;;;10.40;99.90;;;;;;4786566;29;20093;-67
2022/06/22 02:31:18;;;;;;;7.47;5.90;;;10.30;99.90;;;;;;4772043;29;20053;-69
2022/06/22 02:33:48;;;;;;;7.45;6.50;;;10.30;99.90;;;;;;4789991;29;20051;-67
2022/06/22 02:36:14;;;;;;;9.07;6.95;;;10.30;99.90;;;;;;4771997;29;20479;-68
2022/06/22 02:38:42;;;;;;;7.50;6.43;;;10.20;99.90;;;;;;4774657;30;20089;-68
2022/06/22 02:46:40;;;;;;;7.85;6.90;;;10.20;99.90;;;;;;4787755;29;20063;-68
2022/06/22 02:49:12;;;;;;;9.02;6.85;;;10.20;99.90;;;;;;4791313;29;20055;-67
2022/06/22 02:51:44;;;;;;;9.95;6.68;;;10.20;99.90;;;;;;4790944;29;20066;-69
2022/06/22 02:54:25;;;;;;;7.45;6.72;;;10.20;99.90;;;;;;4790719;29;20461;-68
2022/06/22 02:57:23;;;;;;;7.10;6.22;;;10.20;99.90;;;;;;4779253;29;20055;-69
2022/06/22 02:59:49;;;;;;;6.80;5.95;;;10.20;99.90;;;;;;4790069;30;20427;-69
2022/06/22 03:02:17;;;;;;;7.43;6.10;;;10.10;99.90;;;;;;4789550;29;20105;-69
2022/06/22 03:05:00;;;;;;;6.93;6.22;;;10.10;99.90;;;;;;4773170;30;20043;-68
2022/06/22 03:07:59;;;;;;;7.53;6.72;;;10.10;99.90;;;;;;4788965;29;20101;-69
2022/06/22 03:11:00;;;;;;;7.43;6.70;;;10.00;99.90;;;;;;4790621;30;20051;-68
2022/06/22 03:17:33;;;;;;;8.60;7.07;;;10.00;99.90;;;;;;4782025;30;20050;-67
2022/06/22 03:27:45;;;;;;;8.95;7.70;;;10.00;99.90;;;;;;4789901;29;20043;-68
2022/06/22 03:37:11;;;;;;;9.80;7.95;;;10.00;99.90;;;;;;4772579;30;20192;-69
2022/06/22 03:51:40;;;;;;;11.30;8.93;;;10.00;99.90;;;;;;4789930;29;20104;-68
2022/06/22 03:57:58;;;;;;;12.38;9.55;;;10.10;99.90;;;;;;4794068;29;20435;-68
2022/06/22 04:00:24;;;;;;;10.90;9.77;;;10.20;99.90;;;;;;4807687;29;20556;-69
2022/06/22 04:02:50;;;;;;;10.50;9.40;;;10.20;99.90;;;;;;4775494;30;20130;-69
2022/06/22 04:05:19;;;;;;;12.00;10.55;;;10.20;99.90;;;;;;4788209;29;20064;-68
2022/06/22 04:07:46;;;;;;;11.77;10.05;;;10.20;99.90;;;;;;4788444;30;20047;-69
2022/06/22 04:10:34;;;;;;;11.13;9.48;;;10.30;99.90;;;;;;4773587;30;20055;-67
2022/06/22 04:13:03;;;;;;;12.68;10.80;;;10.30;99.90;;;;;;4764916;29;20150;-68
2022/06/22 04:15:54;;;;;;;13.35;10.82;;;10.30;99.90;;;;;;4806542;29;20122;-68
2022/06/22 04:18:35;;;;;;;16.08;11.10;;;10.40;99.90;;;;;;4790589;29;20054;-67
2022/06/22 04:21:13;;;;;;;13.73;11.43;;;10.50;99.90;;;;;;4791645;29;20441;-68
2022/06/22 04:23:54;;;;;;;12.93;10.35;;;10.50;99.90;;;;;;4806429;29;20054;-68
2022/06/22 04:26:33;;;;;;;14.65;10.57;;;10.60;99.90;;;;;;4799663;29;20378;-69
2022/06/22 04:29:21;;;;;;;13.80;11.45;;;10.70;99.90;;;;;;4789266;30;20051;-68
2022/06/22 04:32:18;;;;;;;12.82;10.80;;;10.80;99.90;;;;;;4788560;29;20062;-67
2022/06/22 04:35:13;;;;;;;15.93;11.70;;;10.90;99.90;;;;;;4766527;30;20126;-67
2022/06/22 04:38:05;;;;;;;16.05;11.55;;;10.90;99.90;;;;;;4785017;30;20090;-68
2022/06/22 04:40:47;;;;;;;14.15;11.35;;;10.90;99.90;;;;;;4772182;29;20067;-68
2022/06/22 04:43:13;;;;;;;15.20;12.20;;;11.00;99.90;;;;;;4772754;30;20120;-67
2022/06/22 04:45:41;;;;;;;13.93;11.15;;;11.00;99.90;;;;;;4789400;30;20054;-68
2022/06/22 04:48:29;;;;;;;14.20;11.40;;;11.10;99.90;;;;;;4788410;29;20104;-68
2022/06/22 04:50:59;;;;;;;14.30;11.05;;;11.10;99.90;;;;;;4784175;29;20379;-68
2022/06/22 04:53:36;;;;;;;15.65;12.50;;;11.20;99.90;;;;;;4806797;29;20063;-67
2022/06/22 04:56:09;;;;;;;16.63;10.88;;;11.30;99.90;;;;;;4781047;30;20435;-68
2022/06/22 04:58:42;;;;;;;14.32;11.80;;;11.40;99.90;;;;;;4768922;29;20055;-68
2022/06/22 05:01:14;;;;;;;14.38;11.80;;;11.50;99.90;;;;;;4786851;29;20108;-68
2022/06/22 05:03:40;;;;;;;15.25;11.40;;;11.60;99.90;;;;;;4770300;30;20495;-68
2022/06/22 05:06:15;;;;;;;14.13;11.98;;;11.70;99.90;;;;;;4770910;30;20044;-68
2022/06/22 05:08:48;;;;;;;10.70;9.60;;;11.80;99.90;;;;;;4787364;29;20066;-69
2022/06/22 05:11:20;;;;;;;13.10;9.65;;;11.90;99.90;;;;;;4772326;30;20054;-68
2022/06/22 05:13:48;;;;;;;17.45;10.93;;;12.00;99.90;;;;;;4770504;30;20087;-67
2022/06/22 05:16:27;;;;;;;12.20;9.88;;;12.10;99.90;;;;;;5107075;27;20412;-67
2022/06/22 05:18:55;;;;;;;13.27;10.43;;;12.20;99.90;;;;;;5094860;28;20086;-68
2022/06/22 05:21:44;;;;;;;14.30;10.18;;;12.30;99.90;;;;;;5104575;28;20130;-68
2022/06/22 05:24:15;;;;;;;12.77;10.25;;;12.50;99.90;;;;;;5108973;28;20052;-67
2022/06/22 05:26:42;;;;;;;13.88;10.85;;;12.70;99.90;;;;;;5087427;28;20048;-68
2022/06/22 05:29:11;;;;;;;12.50;9.75;;;12.80;99.90;;;;;;5096257;28;20127;-68
2022/06/22 05:31:42;;;;;;;12.23;10.48;;;13.50;99.90;;;;;;5081761;28;20057;-68
2022/06/22 05:34:21;;;;;;;11.48;10.25;;;14.80;99.90;;;;;;5083499;28;20436;-68
2022/06/22 05:36:53;;;;;;;10.27;9.15;;;16.40;99.90;;;;;;5080013;28;20048;-67
2022/06/22 05:39:23;;;;;;;11.30;8.93;;;17.70;99.90;;;;;;5074696;28;20106;-68
2022/06/22 05:42:09;;;;;;;11.57;9.02;;;18.70;99.90;;;;;;5085134;28;20046;-69
2022/06/22 05:44:35;;;;;;;10.85;8.98;;;19.60;99.90;;;;;;5107780;28;20094;-69
2022/06/22 05:47:16;;;;;;;9.27;8.38;;;20.20;99.90;;;;;;5084874;28;20480;-68
2022/06/22 05:50:08;;;;;;;12.52;7.65;;;20.70;99.90;;;;;;5086742;28;20036;-68
2022/06/22 05:52:43;;;;;;;10.05;8.07;;;21.20;99.90;;;;;;5094513;28;20044;-68
2022/06/22 05:55:19;;;;;;;10.13;7.85;;;21.70;99.90;;;;;;5089293;28;20075;-68
2022/06/22 05:57:56;;;;;;;12.25;7.55;;;22.10;99.90;;;;;;5089489;28;20507;-67
2022/06/22 06:00:28;;;;;;;15.85;8.27;;;22.50;99.90;;;;;;5086375;28;20056;-68
2022/06/22 06:03:21;;;;;;;14.60;7.85;;;22.70;99.90;;;;;;5091785;28;20132;-70
2022/06/22 06:05:55;;;;;;;10.63;7.82;;;22.90;99.90;;;;;;5067734;28;20065;-70
2022/06/22 06:09:13;;;;;;;12.75;7.32;;;22.80;99.90;;;;;;5076385;28;20554;-71
2022/06/22 06:11:46;;;;;;;12.18;7.97;;;23.10;99.90;;;;;;5097975;28;20053;-69
2022/06/22 06:14:26;;;;;;;9.75;7.80;;;23.30;99.90;;;;;;5109243;28;20488;-68
2022/06/22 06:16:56;;;;;;;8.50;7.60;;;23.70;99.90;;;;;;5076984;28;20047;-69
2022/06/22 06:19:28;;;;;;;12.45;7.88;;;23.90;99.90;;;;;;5085204;28;20037;-70
2022/06/22 06:21:59;;;;;;;8.55;7.65;;;23.90;99.90;;;;;;5073207;28;20044;-69
2022/06/22 06:27:34;;;;;;;8.73;7.20;;;23.80;99.90;;;;;;5105962;28;20059;-68
2022/06/22 06:27:35;;;;;;;10.40;8.27;;;23.80;99.90;;;;;;5068329;28;20049;-70
2022/06/22 06:30:10;;;;;;;7.65;6.95;;;23.90;99.90;;;;;;5069332;28;20051;-69
2022/06/22 06:32:59;;;;;;;8.20;6.43;;;24.10;99.90;;;;;;5064039;28;20151;-69
2022/06/22 06:35:40;;;;;;;8.68;6.85;;;24.10;99.60;;;;;;5066169;28;20044;-68
2022/06/22 06:38:13;;;;;;;7.95;5.35;;;24.30;95.80;;;;;;5056118;28;20051;-69
2022/06/22 06:41:13;;;;;;;7.25;5.38;;;24.10;90.90;;;;;;5057751;28;20106;-69
2022/06/22 06:43:48;;;;;;;4.82;4.18;;;23.80;90.80;;;;;;5053812;28;20413;-68
2022/06/22 06:46:22;;;;;;;5.57;4.30;;;22.70;97.70;;;;;;5059599;28;20060;-69
2022/06/22 06:49:01;;;;;;;6.15;3.83;;;21.80;99.90;;;;;;5081910;28;20064;-69
2022/06/22 06:51:31;;;;;;;6.88;3.58;;;21.00;99.90;;;;;;5070507;28;20485;-69
2022/06/22 06:54:06;;;;;;;4.60;4.10;;;20.40;99.90;;;;;;5078599;28;20484;-69
2022/06/22 06:56:38;;;;;;;5.68;3.80;;;20.00;99.90;;;;;;5069613;28;20127;-70
2022/06/22 06:59:12;;;;;;;6.22;4.00;;;19.60;99.90;;;;;;5074405;28;20040;-69
2022/06/22 07:01:39;;;;;;;4.38;3.40;;;19.30;99.90;;;;;;5073035;28;20527;-69
2022/06/22 07:04:35;;;;;;;6.65;4.35;;;19.10;99.90;;;;;;5069281;28;20477;-69
2022/06/22 07:07:25;;;;;;;7.97;4.38;;;19.10;99.90;;;;;;5072271;28;20117;-67
2022/06/22 07:09:55;;;;;;;4.38;3.92;;;19.00;99.90;;;;;;5072859;28;20080;-70
2022/06/22 07:12:26;;;;;;;4.80;3.20;;;18.80;99.90;;;;;;5086898;28;20076;-69
2022/06/22 07:14:53;;;;;;;4.40;2.97;;;18.80;99.90;;;;;;5070334;28;20111;-69
2022/06/22 07:17:21;;;;;;;3.50;2.53;;;18.90;99.90;;;;;;5088903;28;20063;-68
2022/06/22 07:19:56;;;;;;;2.30;1.70;;;19.00;99.90;;;;;;5089820;28;20048;-68
2022/06/22 07:22:32;;;;;;;2.67;1.50;;;19.00;99.90;;;;;;5079000;28;20068;-68
2022/06/22 07:25:01;;;;;;;3.33;1.98;;;18.90;99.90;;;;;;5074464;28;20063;-68
2022/06/22 07:27:39;;;;;;;2.83;1.90;;;19.00;99.90;;;;;;5082659;28;20121;-69
2022/06/22 07:30:22;;;;;;;2.38;1.58;;;19.00;99.90;;;;;;5090670;28;20408;-68
2022/06/22 07:33:02;;;;;;;5.43;2.55;;;19.10;99.90;;;;;;5094002;28;20126;-68
2022/06/22 07:35:43;;;;;;;5.43;3.00;;;19.10;99.90;;;;;;5092969;28;20210;-68
2022/06/22 07:38:28;;;;;;;4.90;3.05;;;19.20;99.90;;;;;;5092393;28;20071;-69
2022/06/22 07:41:37;;;;;;;5.32;2.70;;;19.40;99.90;;;;;;5091290;28;20056;-69
2022/06/22 07:43:46;;;;;;;4.00;2.13;;;19.70;99.90;;;;;;5085021;28;20079;-68
2022/06/22 07:46:23;;;;;;;3.90;2.47;;;19.60;99.90;;;;;;5093162;28;20499;-68
2022/06/22 07:48:51;;;;;;;3.22;2.20;;;19.70;99.90;;;;;;5090906;28;20044;-68
2022/06/22 07:51:23;;;;;;;4.63;2.17;;;19.70;99.90;;;;;;5073525;28;20060;-68
2022/06/22 07:53:55;;;;;;;2.78;2.50;;;19.70;99.90;;;;;;5089244;28;20067;-69
2022/06/22 07:56:27;;;;;;;3.38;2.10;;;19.90;99.90;;;;;;5073610;28;20063;-69
2022/06/22 07:58:57;;;;;;;4.47;2.15;;;19.90;99.90;;;;;;5079179;28;20080;-68
2022/06/22 08:01:31;;;;;;;3.42;2.60;;;19.90;99.90;;;;;;5092235;28;20127;-70
2022/06/22 08:04:03;;;;;;;2.83;2.40;;;19.90;98.50;;;;;;5091779;28;20054;-70
2022/06/22 08:06:35;;;;;;;4.13;2.63;;;20.00;99.90;;;;;;5094091;28;20055;-69
2022/06/22 08:09:11;;;;;;;2.63;2.20;;;20.20;99.90;;;;;;5092451;28;20400;-70
2022/06/22 08:11:44;;;;;;;4.65;2.58;;;20.30;97.90;;;;;;5092752;28;20122;-70
2022/06/22 08:14:31;;;;;;;3.78;2.80;;;20.30;98.40;;;;;;5115491;27;20412;-69
2022/06/22 08:17:00;;;;;;;5.10;2.45;;;20.50;96.20;;;;;;5073355;28;20114;-69
2022/06/22 08:19:28;;;;;;;5.93;2.33;;;20.70;95.60;;;;;;5084466;28;20048;-69
2022/06/22 08:21:58;;;;;;;3.83;2.30;;;20.70;94.60;;;;;;5093850;28;20447;-70
2022/06/22 08:24:25;;;;;;;4.22;2.10;;;20.60;91.80;;;;;;5090482;28;20051;-69
2022/06/22 08:26:54;;;;;;;4.40;2.28;;;20.60;89.50;;;;;;5093551;28;20047;-70
2022/06/22 08:29:23;;;;;;;4.32;2.10;;;20.80;84.70;;;;;;5084901;28;20060;-70
2022/06/22 08:31:57;;;;;;;5.47;2.38;;;20.70;74.90;;;;;;5091253;28;20052;-70
2022/06/22 08:34:39;;;;;;;4.53;2.40;;;20.70;69.80;;;;;;5090174;28;20059;-70
2022/06/22 08:37:07;;;;;;;;;;;20.70;69.60;;;;;;5093651;28;20438;-69
2022/06/22 08:39:41;;;;;;;2.78;1.90;;;20.80;68.20;;;;;;5091421;28;19916;-69
2022/06/22 08:42:32;;;;;;;3.35;1.90;;;20.90;69.50;;;;;;5093349;28;20046;-70
2022/06/22 08:45:32;;;;;;;2.45;1.65;;;20.90;69.50;;;;;;5090399;28;20398;-68
2022/06/22 08:48:00;;;;;;;3.78;2.15;;;21.10;70.50;;;;;;5089382;28;20468;-70
2022/06/22 08:50:40;;;;;;;3.67;2.10;;;21.20;74.90;;;;;;5091834;28;20450;-69
2022/06/22 08:53:34;;;;;;;5.60;2.20;;;21.40;69.10;;;;;;5089831;28;20047;-69
2022/06/22 08:56:23;;;;;;;3.13;1.85;;;21.40;67.60;;;;;;5084502;28;20055;-70
2022/06/22 08:59:28;;;;;;;5.22;2.20;;;21.40;60.40;;;;;;5078578;28;20134;-70
2022/06/22 09:02:32;;;;;;;4.18;2.10;;;21.50;62.70;;;;;;5079925;28;20068;-70
2022/06/22 09:05:34;;;;;;;5.25;2.03;;;21.50;64.30;;;;;;5091801;28;20468;-69
2022/06/22 09:08:00;;;;;;;;;;;21.50;68.70;;;;;;5069789;28;20048;-69
2022/06/22 09:10:40;;;;;;;3.78;2.17;;;21.60;64.40;;;;;;5072175;28;19920;-70
2022/06/22 09:13:06;;;;;;;4.00;1.95;;;21.60;66.20;;;;;;5069428;28;20118;-70
2022/06/22 09:16:08;;;;;;;4.03;1.80;;;21.70;66.00;;;;;;5072162;28;20489;-70
2022/06/22 09:19:00;;;;;;;3.03;2.10;;;21.80;64.50;;;;;;5077685;28;20125;-69
2022/06/22 09:21:41;;;;;;;3.17;2.00;;;22.00;63.90;;;;;;5089953;28;20076;-69
2022/06/22 09:24:21;;;;;;;5.13;2.47;;;22.00;64.30;;;;;;5091363;28;20052;-70
2022/06/22 09:27:20;;;;;;;3.40;2.60;;;21.90;62.20;;;;;;5053429;28;20057;-70
2022/06/22 09:30:09;;;;;;;3.35;2.00;;;21.70;62.60;;;;;;5080753;28;20052;-68
2022/06/22 09:32:49;;;;;;;5.50;2.75;;;21.70;64.20;;;;;;5078191;28;20057;-70
2022/06/22 09:35:33;;;;;;;6.03;3.08;;;21.80;65.10;;;;;;5072273;28;20052;-70
2022/06/22 09:38:44;;;;;;;3.25;2.40;;;21.70;65.90;;;;;;5070308;28;20044;-69
2022/06/22 09:41:13;;;;;;;5.53;2.30;;;21.90;63.60;;;;;;5072179;28;20056;-69
2022/06/22 09:44:07;;;;;;;3.40;2.38;;;21.90;64.00;;;;;;5069837;28;20051;-68
2022/06/22 09:46:52;;;;;;;4.95;2.60;;;21.90;63.00;;;;;;5070152;28;20064;-68
2022/06/22 09:49:33;;;;;;;7.10;2.03;;;21.90;65.50;;;;;;5072730;28;20059;-69
2022/06/22 09:52:05;;;;;;;4.28;2.30;;;22.20;62.90;;;;;;5052095;28;20055;-69
2022/06/22 09:57:55;;;;;;;3.78;2.15;;;22.40;60.80;;;;;;5067651;28;20056;-68
2022/06/22 10:00:29;;;;;;;6.28;2.40;;;22.60;61.70;;;;;;5070319;28;20068;-69
2022/06/22 10:03:09;;;;;;;3.15;1.83;;;22.70;59.40;;;;;;5072706;28;20059;-68
2022/06/22 10:05:52;;;;;;;2.85;2.20;;;22.60;59.20;;;;;;5072632;28;20504;-69
2022/06/22 10:08:54;;;;;;;3.65;2.10;;;22.80;59.30;;;;;;5091939;28;20091;-69
2022/06/22 10:11:23;;;;;;;4.45;2.13;;;22.90;58.40;;;;;;5094461;28;20048;-70
2022/06/22 10:14:17;;;;;;;4.38;2.65;;;23.00;58.70;;;;;;5080309;28;20059;-69
2022/06/22 10:16:58;;;;;;;3.60;1.83;;;23.10;58.40;;;;;;5075378;28;20165;-69
2022/06/22 10:19:26;;;;;;;3.15;1.70;;;23.20;57.90;;;;;;5086182;28;20078;-69
2022/06/22 10:22:16;;;;;;;2.47;2.05;;;23.30;58.30;;;;;;5096281;28;20073;-69
2022/06/22 10:25:20;;;;;;;2.42;1.67;;;23.40;54.30;;;;;;5054059;28;20044;-68
2022/06/22 10:28:07;;;;;;;4.30;1.63;;;23.30;53.90;;;;;;5080131;28;20127;-68
2022/06/22 10:31:09;;;;;;;2.92;1.77;;;23.30;52.80;;;;;;5074677;28;20052;-69
2022/06/22 10:33:53;;;;;;;2.70;2.33;;;23.30;54.20;;;;;;5094383;28;20438;-69
2022/06/22 10:36:24;;;;;;;5.22;2.67;;;23.20;55.10;;;;;;5092884;28;20059;-69
2022/06/22 10:39:01;;;;;;;5.10;3.35;;;23.20;55.90;;;;;;5095790;28;20059;-69
2022/06/22 10:45:09;;;;;;;2.72;1.88;;;23.20;55.70;;;;;;5093650;28;20044;-68
2022/06/22 10:47:59;;;;;;;2.80;1.90;;;23.20;56.10;;;;;;5091766;28;20086;-70
2022/06/22 10:50:47;;;;;;;3.88;2.00;;;23.30;55.50;;;;;;5084405;28;20109;-68
2022/06/22 10:53:37;;;;;;;2.42;2.00;;;23.20;54.10;;;;;;5073912;28;20074;-67
2022/06/22 10:56:16;;;;;;;4.68;1.92;;;23.10;55.40;;;;;;5068796;28;20094;-69
2022/06/22 10:59:13;;;;;;;3.58;1.92;;;23.30;55.80;;;;;;5093948;28;20502;-68
2022/06/22 11:01:48;;;;;;;3.97;2.10;;;23.40;55.80;;;;;;5090230;28;20052;-67
2022/06/22 11:04:46;;;;;;;3.70;2.05;;;23.50;55.60;;;;;;5085784;28;20050;-68
2022/06/22 11:08:03;;;;;;;2.10;1.90;;;23.60;54.60;;;;;;5094118;28;20052;-70
2022/06/22 11:10:42;;;;;;;2.80;1.85;;;23.60;54.80;;;;;;5084797;28;20050;-69
2022/06/22 11:13:36;;;;;;;3.45;1.73;;;23.60;54.90;;;;;;5094615;28;20561;-65
2022/06/22 11:16:23;;;;;;;2.38;1.77;;;23.60;53.70;;;;;;5084114;28;20076;-70
2022/06/22 11:19:10;;;;;;;2.97;1.98;;;23.40;53.00;;;;;;5074346;28;20044;-69
2022/06/22 11:21:55;;;;;;;3.72;1.80;;;23.40;53.30;;;;;;5097272;28;20052;-68
2022/06/22 11:24:29;;;;;;;3.13;2.08;;;23.40;52.80;;;;;;5085464;28;20059;-69
2022/06/22 11:33:25;;;;;;;4.18;1.83;;;23.30;53.50;;;;;;5081627;28;20049;-68
2022/06/22 11:36:03;;;;;;;4.03;2.08;;;23.30;54.70;;;;;;5068410;28;20057;-68
2022/06/22 11:38:28;;;;;;;5.32;2.58;;;23.40;53.90;;;;;;5072665;28;20083;-68
2022/06/22 11:41:11;;;;;;;3.70;2.10;;;23.40;54.00;;;;;;5075680;28;20080;-67
2022/06/22 11:43:54;;;;;;;3.50;1.95;;;23.40;53.80;;;;;;5085352;28;20480;-68
2022/06/22 11:46:23;;;;;;;3.85;2.50;;;23.60;53.50;;;;;;5075830;28;20044;-68
2022/06/22 11:49:07;;;;;;;4.22;2.30;;;23.70;52.60;;;;;;5094006;28;20051;-67
2022/06/22 11:51:58;;;;;;;6.07;1.90;;;23.70;52.90;;;;;;5093932;28;20490;-68
2022/06/22 11:54:54;;;;;;;4.00;1.90;;;23.90;52.20;;;;;;5090603;28;20055;-67
2022/06/22 11:57:38;;;;;;;3.65;1.88;;;24.00;52.60;;;;;;5094142;28;20059;-68
2022/06/22 12:00:22;;;;;;;5.47;1.80;;;24.10;51.90;;;;;;5094103;28;20056;-67
2022/06/22 12:02:56;;;;;;;4.82;2.00;;;24.10;51.70;;;;;;5074222;28;20060;-67
2022/06/22 12:05:45;;;;;;;3.55;1.85;;;24.20;50.80;;;;;;5073924;28;20057;-68
2022/06/22 12:08:19;;;;;;;2.83;1.80;;;24.30;50.90;;;;;;5086675;28;20555;-68
2022/06/22 12:11:03;;;;;;;2.15;1.80;;;24.30;51.00;;;;;;5092662;28;20451;-68
2022/06/22 12:17:02;;;;;;;2.90;2.13;;;24.30;50.10;;;;;;5068828;28;20056;-67
2022/06/22 12:20:01;;;;;;;3.55;1.85;;;24.40;50.70;;;;;;5083327;28;20048;-67
2022/06/22 12:23:01;;;;;;;4.80;1.80;;;24.50;50.60;;;;;;5071927;28;20401;-68
2022/06/22 12:25:44;;;;;;;2.78;1.83;;;24.50;49.70;;;;;;5089590;28;20056;-68
2022/06/22 12:28:46;;;;;;;3.83;1.95;;;24.60;49.60;;;;;;5085720;28;20059;-68
2022/06/22 12:31:19;;;;;;;2.55;1.77;;;24.60;50.10;;;;;;5084211;28;20052;-67
2022/06/22 12:34:06;;;;;;;3.58;2.15;;;24.60;49.50;;;;;;5073622;28;20498;-68
2022/06/22 12:36:44;;;;;;;2.97;2.00;;;24.50;49.70;;;;;;5069924;28;20097;-68
2022/06/22 12:39:19;;;;;;;4.10;1.98;;;24.60;50.40;;;;;;5071408;28;20056;-66
2022/06/22 12:42:21;;;;;;;2.80;1.80;;;24.60;49.80;;;;;;5070590;28;20119;-68
2022/06/22 12:44:50;;;;;;;;;;;24.50;50.10;;;;;;5086029;28;20779;-67
2022/06/22 12:47:43;;;;;;;1.95;1.65;;;24.40;50.60;;;;;;5087809;28;20448;-67
2022/06/22 12:50:21;;;;;;;3.60;2.03;;;24.50;50.60;;;;;;5071729;28;20056;-67
2022/06/22 12:52:58;;;;;;;2.67;1.70;;;24.50;50.70;;;;;;5081645;28;20139;-68
2022/06/22 12:55:31;;;;;;;4.25;1.70;;;24.70;50.50;;;;;;5092067;28;20048;-68
2022/06/22 12:58:15;;;;;;;2.90;1.60;;;24.80;49.90;;;;;;5092770;28;20047;-67
2022/06/22 13:00:44;;;;;;;3.88;1.67;;;24.80;49.40;;;;;;5092977;28;20059;-67
2022/06/22 13:03:20;;;;;;;3.15;1.50;;;24.90;49.90;;;;;;5092422;28;20044;-68
2022/06/22 13:05:46;;;;;;;5.10;1.98;;;24.80;49.50;;;;;;5080908;28;20048;-67
2022/06/22 13:08:18;;;;;;;3.55;2.38;;;24.60;49.30;;;;;;5070100;28;20052;-67
2022/06/22 13:10:46;;;;;;;4.32;2.00;;;24.60;49.50;;;;;;5071635;28;20049;-67
2022/06/22 13:13:28;;;;;;;4.68;1.92;;;24.50;50.00;;;;;;5054122;28;20040;-69
2022/06/22 13:15:59;;;;;;;2.88;1.92;;;24.50;50.50;;;;;;5071731;28;20070;-67
2022/06/22 13:18:46;;;;;;;3.03;1.80;;;24.70;50.50;;;;;;5078036;28;20052;-68
2022/06/22 13:21:19;;;;;;;3.40;2.22;;;24.80;50.30;;;;;;5074172;28;20055;-68
2022/06/22 13:24:03;;;;;;;4.32;1.88;;;24.80;50.70;;;;;;5078679;28;20048;-68
2022/06/22 13:26:47;;;;;;;4.00;1.73;;;25.00;51.40;;;;;;5082889;28;20045;-68
2022/06/22 13:29:25;;;;;;;3.60;1.63;;;25.10;50.60;;;;;;5071490;28;20535;-67
2022/06/22 13:31:54;;;;;;;3.60;1.90;;;25.00;50.10;;;;;;5070215;28;20052;-68
2022/06/22 13:34:26;;;;;;;2.75;1.80;;;24.80;49.40;;;;;;5076917;28;20056;-68
2022/06/22 13:37:10;;;;;;;3.83;1.80;;;24.90;50.00;;;;;;5071973;28;20101;-69
2022/06/22 13:39:53;;;;;;;3.70;2.20;;;25.00;50.50;;;;;;5091408;28;20061;-68
2022/06/22 13:42:49;;;;;;;2.53;1.73;;;25.10;50.90;;;;;;5073542;28;20040;-68
2022/06/22 13:45:31;;;;;;;3.35;1.60;;;25.20;49.80;;;;;;5076056;28;20075;-68
2022/06/22 13:48:29;;;;;;;3.83;2.10;;;25.20;50.90;;;;;;5075629;28;20123;-68
2022/06/22 13:51:18;;;;;;;3.90;2.50;;;25.20;50.70;;;;;;5076791;28;20052;-67
2022/06/22 13:53:59;;;;;;;3.72;2.42;;;25.20;51.20;;;;;;5075924;28;20056;-68
2022/06/22 13:56:32;;;;;;;4.75;1.98;;;25.30;51.10;;;;;;5076414;28;20055;-68
2022/06/22 13:59:05;;;;;;;4.05;2.20;;;25.20;50.60;;;;;;5112413;28;20066;-66
2022/06/22 14:01:41;;;;;;;2.35;1.80;;;25.00;51.00;;;;;;5094622;28;20123;-69
2022/06/22 14:04:20;;;;;;;3.67;2.15;;;24.90;52.10;;;;;;5096474;28;20048;-66
2022/06/22 14:07:09;;;;;;;2.72;2.00;;;25.00;51.80;;;;;;5094630;28;20054;-70
2022/06/22 14:09:49;;;;;;;2.95;2.05;;;25.10;52.10;;;;;;5096247;28;20048;-66
2022/06/22 14:12:25;;;;;;;4.13;2.70;;;25.20;52.30;;;;;;5086459;28;20048;-69
2022/06/22 14:15:19;;;;;;;6.40;3.50;;;25.00;53.20;;;;;;5074295;28;20102;-68
2022/06/22 14:18:04;;;;;;;4.40;2.75;;;25.00;53.10;;;;;;5074114;28;20411;-68
2022/06/22 14:20:40;;;;;;;5.00;2.60;;;25.00;54.00;;;;;;5074882;28;20127;-67
2022/06/22 14:23:14;;;;;;;3.38;2.20;;;25.10;53.80;;;;;;5075400;28;20071;-68
2022/06/22 14:25:56;;;;;;;4.78;2.58;;;25.20;53.90;;;;;;5074460;28;20057;-68
2022/06/22 14:28:39;;;;;;;5.30;2.67;;;25.10;53.80;;;;;;5076528;28;20060;-68
2022/06/22 14:31:23;;;;;;;3.53;2.58;;;25.10;54.00;;;;;;5075646;28;20450;-69
2022/06/22 14:34:00;;;;;;;4.18;2.53;;;25.20;53.70;;;;;;5074181;28;20435;-66
2022/06/22 14:36:39;;;;;;;3.95;2.97;;;25.10;53.70;;;;;;5075368;28;20052;-67
2022/06/22 14:39:17;;;;;;;5.22;3.10;;;25.20;54.30;;;;;;5073814;28;20053;-67
2022/06/22 14:41:54;;;;;;;3.80;2.70;;;25.10;54.00;;;;;;5073213;28;20044;-66
2022/06/22 14:44:40;;;;;;;5.60;3.35;;;24.90;54.30;;;;;;5107060;28;20350;-67
2022/06/22 14:47:33;;;;;;;4.53;2.25;;;24.90;54.30;;;;;;5071269;28;20132;-67